Terminal Aerodrome Forecast
Issued by NWS

Home | Current Version | Previous Version | Text Only | Print | Product List | Glossary On
Versions: 1 2 3 4 5 6 7 8 9 10 11 12 13 14 15 16 17 18 19 20 21 22 23 24 25
000
FTUS43 KLSX 202111 AAA
TAFUIN
TAF AMD
KUIN 202111Z 2021/2118 32014KT 4SM -RA BR OVC006
     FM210000 33012G18KT 3SM -RA OVC010
     FM210400 33014G23KT 5SM -FZRA OVC015
     FM210600 34014G23KT P6SM OVC015
     FM210800 35013G20KT P6SM BKN020
     FM211200 35012KT P6SM BKN250=

USA.gov is the U.S. government's official web portal to all federal, state and local government web resources and services.